sensor_id;sensor_type;location;lat;lon;timestamp;temperature;humidity
9215;DHT22;4642;51.364;6.788;2022-09-09T00:03:47;15.20;99.90
9215;DHT22;4642;51.364;6.788;2022-09-09T00:06:18;15.30;99.90
9215;DHT22;4642;51.364;6.788;2022-09-09T00:14:47;15.20;99.90
9215;DHT22;4642;51.364;6.788;2022-09-09T00:17:36;15.20;99.90
9215;DHT22;4642;51.364;6.788;2022-09-09T00:20:16;15.20;99.90
9215;DHT22;4642;51.364;6.788;2022-09-09T00:23:00;15.20;99.90
9215;DHT22;4642;51.364;6.788;2022-09-09T00:31:33;15.20;99.90
9215;DHT22;4642;51.364;6.788;2022-09-09T00:34:21;15.30;99.90
9215;DHT22;4642;51.364;6.788;2022-09-09T00:36:50;15.10;99.90
9215;DHT22;4642;51.364;6.788;2022-09-09T00:39:41;15.20;99.90
9215;DHT22;4642;51.364;6.788;2022-09-09T00:42:42;15.20;99.90
9215;DHT22;4642;51.364;6.788;2022-09-09T00:48:04;15.20;99.90
9215;DHT22;4642;51.364;6.788;2022-09-09T00:50:49;15.30;99.90
9215;DHT22;4642;51.364;6.788;2022-09-09T00:58:34;15.20;99.90
9215;DHT22;4642;51.364;6.788;2022-09-09T01:01:08;15.30;99.90
9215;DHT22;4642;51.364;6.788;2022-09-09T01:03:36;15.20;99.90
9215;DHT22;4642;51.364;6.788;2022-09-09T01:11:47;15.10;99.90
9215;DHT22;4642;51.364;6.788;2022-09-09T01:19:55;15.10;99.90
9215;DHT22;4642;51.364;6.788;2022-09-09T01:25:29;15.10;99.90
9215;DHT22;4642;51.364;6.788;2022-09-09T01:28:03;15.00;99.90
9215;DHT22;4642;51.364;6.788;2022-09-09T01:30:31;15.00;99.90
9215;DHT22;4642;51.364;6.788;2022-09-09T01:32:58;14.90;99.90
9215;DHT22;4642;51.364;6.788;2022-09-09T01:35:48;14.90;99.90
9215;DHT22;4642;51.364;6.788;2022-09-09T01:38:16;14.90;99.90
9215;DHT22;4642;51.364;6.788;2022-09-09T01:40:43;15.00;99.90
9215;DHT22;4642;51.364;6.788;2022-09-09T01:43:09;14.90;99.90
9215;DHT22;4642;51.364;6.788;2022-09-09T01:45:35;14.80;99.90
9215;DHT22;4642;51.364;6.788;2022-09-09T01:48:01;14.80;99.90
9215;DHT22;4642;51.364;6.788;2022-09-09T01:50:28;14.80;99.90
9215;DHT22;4642;51.364;6.788;2022-09-09T01:52:58;14.90;99.90
9215;DHT22;4642;51.364;6.788;2022-09-09T01:55:32;16.20;99.90
9215;DHT22;4642;51.364;6.788;2022-09-09T02:03:32;14.70;99.90
9215;DHT22;4642;51.364;6.788;2022-09-09T02:08:59;14.70;99.90
9215;DHT22;4642;51.364;6.788;2022-09-09T02:11:27;14.80;99.90
9215;DHT22;4642;51.364;6.788;2022-09-09T02:14:01;14.80;99.90
9215;DHT22;4642;51.364;6.788;2022-09-09T02:16:33;14.80;99.90
9215;DHT22;4642;51.364;6.788;2022-09-09T02:19:28;14.90;99.90
9215;DHT22;4642;51.364;6.788;2022-09-09T02:21:57;14.90;99.90
9215;DHT22;4642;51.364;6.788;2022-09-09T02:24:26;14.90;99.90
9215;DHT22;4642;51.364;6.788;2022-09-09T02:26:53;14.90;99.90
9215;DHT22;4642;51.364;6.788;2022-09-09T02:29:27;14.90;99.90
9215;DHT22;4642;51.364;6.788;2022-09-09T02:31:57;15.40;99.90
9215;DHT22;4642;51.364;6.788;2022-09-09T02:34:23;15.00;99.90
9215;DHT22;4642;51.364;6.788;2022-09-09T02:36:52;15.10;99.90
9215;DHT22;4642;51.364;6.788;2022-09-09T02:39:19;15.00;99.90
9215;DHT22;4642;51.364;6.788;2022-09-09T02:41:44;15.00;99.90
9215;DHT22;4642;51.364;6.788;2022-09-09T02:44:11;15.00;99.90
9215;DHT22;4642;51.364;6.788;2022-09-09T02:46:42;15.10;99.90
9215;DHT22;4642;51.364;6.788;2022-09-09T02:56:51;15.00;99.90
9215;DHT22;4642;51.364;6.788;2022-09-09T02:59:18;15.00;99.90
9215;DHT22;4642;51.364;6.788;2022-09-09T03:01:44;15.00;99.90
9215;DHT22;4642;51.364;6.788;2022-09-09T03:04:10;15.40;99.90
9215;DHT22;4642;51.364;6.788;2022-09-09T03:06:35;15.10;99.90
9215;DHT22;4642;51.364;6.788;2022-09-09T03:09:01;15.10;99.90
9215;DHT22;4642;51.364;6.788;2022-09-09T03:11:28;15.10;99.90
9215;DHT22;4642;51.364;6.788;2022-09-09T03:13:54;15.10;99.90
9215;DHT22;4642;51.364;6.788;2022-09-09T03:16:22;15.20;99.90
9215;DHT22;4642;51.364;6.788;2022-09-09T03:18:47;15.10;99.90
9215;DHT22;4642;51.364;6.788;2022-09-09T03:21:13;15.10;99.90
9215;DHT22;4642;51.364;6.788;2022-09-09T03:23:39;15.10;99.90
9215;DHT22;4642;51.364;6.788;2022-09-09T03:26:05;15.10;99.90
9215;DHT22;4642;51.364;6.788;2022-09-09T03:28:31;15.10;99.90
9215;DHT22;4642;51.364;6.788;2022-09-09T03:31:04;15.00;99.90
9215;DHT22;4642;51.364;6.788;2022-09-09T03:33:30;15.10;99.90
9215;DHT22;4642;51.364;6.788;2022-09-09T03:35:57;15.20;99.90
9215;DHT22;4642;51.364;6.788;2022-09-09T03:38:26;15.10;99.90
9215;DHT22;4642;51.364;6.788;2022-09-09T03:40:52;15.20;99.90
9215;DHT22;4642;51.364;6.788;2022-09-09T03:43:21;15.10;99.90
9215;DHT22;4642;51.364;6.788;2022-09-09T03:45:48;15.10;99.90
9215;DHT22;4642;51.364;6.788;2022-09-09T03:48:14;15.10;99.90
9215;DHT22;4642;51.364;6.788;2022-09-09T03:50:47;15.10;99.90
9215;DHT22;4642;51.364;6.788;2022-09-09T03:53:14;15.10;99.90
9215;DHT22;4642;51.364;6.788;2022-09-09T03:55:47;15.10;99.90
9215;DHT22;4642;51.364;6.788;2022-09-09T03:58:14;15.10;99.90
9215;DHT22;4642;51.364;6.788;2022-09-09T04:00:40;15.10;99.90
9215;DHT22;4642;51.364;6.788;2022-09-09T04:03:09;15.00;99.90
9215;DHT22;4642;51.364;6.788;2022-09-09T04:05:35;15.00;99.90
9215;DHT22;4642;51.364;6.788;2022-09-09T04:08:05;15.00;99.90
9215;DHT22;4642;51.364;6.788;2022-09-09T04:10:31;15.00;99.90
9215;DHT22;4642;51.364;6.788;2022-09-09T04:12:57;14.90;99.90
9215;DHT22;4642;51.364;6.788;2022-09-09T04:15:22;14.90;99.90
9215;DHT22;4642;51.364;6.788;2022-09-09T04:17:48;14.90;99.90
9215;DHT22;4642;51.364;6.788;2022-09-09T04:20:13;15.60;99.90
9215;DHT22;4642;51.364;6.788;2022-09-09T04:22:39;14.90;99.90
9215;DHT22;4642;51.364;6.788;2022-09-09T04:25:07;14.90;99.90
9215;DHT22;4642;51.364;6.788;2022-09-09T04:27:33;14.80;99.90
9215;DHT22;4642;51.364;6.788;2022-09-09T04:29:59;14.80;99.90
9215;DHT22;4642;51.364;6.788;2022-09-09T04:32:24;14.80;99.90
9215;DHT22;4642;51.364;6.788;2022-09-09T04:34:52;14.90;99.90
9215;DHT22;4642;51.364;6.788;2022-09-09T04:37:18;14.90;99.90
9215;DHT22;4642;51.364;6.788;2022-09-09T04:39:43;14.90;99.90
9215;DHT22;4642;51.364;6.788;2022-09-09T04:42:09;14.90;99.90
9215;DHT22;4642;51.364;6.788;2022-09-09T04:44:35;15.40;99.90
9215;DHT22;4642;51.364;6.788;2022-09-09T04:47:01;14.90;99.90
9215;DHT22;4642;51.364;6.788;2022-09-09T04:49:26;14.90;99.90
9215;DHT22;4642;51.364;6.788;2022-09-09T04:51:52;14.90;99.90
9215;DHT22;4642;51.364;6.788;2022-09-09T04:54:18;14.90;99.90
9215;DHT22;4642;51.364;6.788;2022-09-09T04:56:44;14.90;99.90
9215;DHT22;4642;51.364;6.788;2022-09-09T04:59:09;14.90;99.90
9215;DHT22;4642;51.364;6.788;2022-09-09T05:01:35;14.90;99.90
9215;DHT22;4642;51.364;6.788;2022-09-09T05:04:01;15.00;99.90
9215;DHT22;4642;51.364;6.788;2022-09-09T05:06:28;15.00;99.90
9215;DHT22;4642;51.364;6.788;2022-09-09T05:08:55;15.00;99.90
9215;DHT22;4642;51.364;6.788;2022-09-09T05:11:23;14.90;99.90
9215;DHT22;4642;51.364;6.788;2022-09-09T05:13:49;15.00;99.90
9215;DHT22;4642;51.364;6.788;2022-09-09T05:16:16;15.00;99.90
9215;DHT22;4642;51.364;6.788;2022-09-09T05:18:42;15.00;99.90
9215;DHT22;4642;51.364;6.788;2022-09-09T05:21:09;15.00;99.90
9215;DHT22;4642;51.364;6.788;2022-09-09T05:23:36;15.00;99.90
9215;DHT22;4642;51.364;6.788;2022-09-09T05:26:03;15.00;99.90
9215;DHT22;4642;51.364;6.788;2022-09-09T05:28:29;15.10;99.90
9215;DHT22;4642;51.364;6.788;2022-09-09T05:31:04;15.00;99.90
9215;DHT22;4642;51.364;6.788;2022-09-09T05:33:31;15.10;99.90
9215;DHT22;4642;51.364;6.788;2022-09-09T05:36:02;15.10;99.90
9215;DHT22;4642;51.364;6.788;2022-09-09T05:38:29;15.10;99.90
9215;DHT22;4642;51.364;6.788;2022-09-09T05:40:55;15.10;99.90
9215;DHT22;4642;51.364;6.788;2022-09-09T05:43:22;15.10;99.90
9215;DHT22;4642;51.364;6.788;2022-09-09T05:45:48;15.10;99.90
9215;DHT22;4642;51.364;6.788;2022-09-09T05:48:17;15.10;99.90
9215;DHT22;4642;51.364;6.788;2022-09-09T05:50:54;15.20;99.90
9215;DHT22;4642;51.364;6.788;2022-09-09T05:53:20;15.30;99.90
9215;DHT22;4642;51.364;6.788;2022-09-09T05:55:46;15.20;99.90
9215;DHT22;4642;51.364;6.788;2022-09-09T05:58:11;15.20;99.90
9215;DHT22;4642;51.364;6.788;2022-09-09T06:00:37;15.30;99.90
9215;DHT22;4642;51.364;6.788;2022-09-09T06:03:03;15.30;99.90
9215;DHT22;4642;51.364;6.788;2022-09-09T06:05:29;15.30;99.90
9215;DHT22;4642;51.364;6.788;2022-09-09T06:07:55;15.30;99.90
9215;DHT22;4642;51.364;6.788;2022-09-09T06:10:21;15.30;99.90
9215;DHT22;4642;51.364;6.788;2022-09-09T06:12:47;15.40;99.90
9215;DHT22;4642;51.364;6.788;2022-09-09T06:15:13;15.30;99.90
9215;DHT22;4642;51.364;6.788;2022-09-09T06:17:38;15.40;99.90
9215;DHT22;4642;51.364;6.788;2022-09-09T06:20:04;15.40;99.90
9215;DHT22;4642;51.364;6.788;2022-09-09T06:22:30;15.40;99.90
9215;DHT22;4642;51.364;6.788;2022-09-09T06:24:55;15.40;99.90
9215;DHT22;4642;51.364;6.788;2022-09-09T06:29:50;15.50;99.90
9215;DHT22;4642;51.364;6.788;2022-09-09T06:32:16;15.50;99.90
9215;DHT22;4642;51.364;6.788;2022-09-09T06:34:41;15.50;99.90
9215;DHT22;4642;51.364;6.788;2022-09-09T06:37:07;15.60;99.90
9215;DHT22;4642;51.364;6.788;2022-09-09T06:39:33;15.60;99.90
9215;DHT22;4642;51.364;6.788;2022-09-09T06:41:59;15.60;99.90
9215;DHT22;4642;51.364;6.788;2022-09-09T06:44:25;15.70;99.90
9215;DHT22;4642;51.364;6.788;2022-09-09T06:46:52;15.70;99.90
9215;DHT22;4642;51.364;6.788;2022-09-09T06:49:17;15.70;99.90
9215;DHT22;4642;51.364;6.788;2022-09-09T06:51:43;15.70;99.90
9215;DHT22;4642;51.364;6.788;2022-09-09T06:54:10;15.70;99.90
9215;DHT22;4642;51.364;6.788;2022-09-09T06:56:39;15.80;99.90
9215;DHT22;4642;51.364;6.788;2022-09-09T06:59:08;15.80;99.90
9215;DHT22;4642;51.364;6.788;2022-09-09T07:01:42;15.90;99.90
9215;DHT22;4642;51.364;6.788;2022-09-09T07:04:12;15.90;99.90
9215;DHT22;4642;51.364;6.788;2022-09-09T07:06:41;15.90;99.90
9215;DHT22;4642;51.364;6.788;2022-09-09T07:09:10;16.00;99.90
9215;DHT22;4642;51.364;6.788;2022-09-09T07:14:04;16.10;99.90
9215;DHT22;4642;51.364;6.788;2022-09-09T07:16:30;16.10;99.90
9215;DHT22;4642;51.364;6.788;2022-09-09T07:18:58;16.20;99.90
9215;DHT22;4642;51.364;6.788;2022-09-09T07:21:25;16.20;99.90
9215;DHT22;4642;51.364;6.788;2022-09-09T07:23:54;16.30;99.90
9215;DHT22;4642;51.364;6.788;2022-09-09T07:26:23;16.30;99.90
9215;DHT22;4642;51.364;6.788;2022-09-09T07:28:49;16.40;99.90
9215;DHT22;4642;51.364;6.788;2022-09-09T07:31:20;16.40;99.90
9215;DHT22;4642;51.364;6.788;2022-09-09T07:33:47;16.40;99.90
9215;DHT22;4642;51.364;6.788;2022-09-09T07:36:16;16.40;99.90
9215;DHT22;4642;51.364;6.788;2022-09-09T07:38:43;16.50;99.90
9215;DHT22;4642;51.364;6.788;2022-09-09T07:41:15;16.50;99.90
9215;DHT22;4642;51.364;6.788;2022-09-09T07:43:42;16.50;99.90
9215;DHT22;4642;51.364;6.788;2022-09-09T07:46:09;16.50;99.90
9215;DHT22;4642;51.364;6.788;2022-09-09T07:48:36;16.60;99.90
9215;DHT22;4642;51.364;6.788;2022-09-09T07:51:10;16.60;99.90
9215;DHT22;4642;51.364;6.788;2022-09-09T07:53:37;16.70;99.90
9215;DHT22;4642;51.364;6.788;2022-09-09T07:56:09;16.60;99.90
9215;DHT22;4642;51.364;6.788;2022-09-09T07:58:36;16.70;99.90
9215;DHT22;4642;51.364;6.788;2022-09-09T08:01:10;16.70;99.90
9215;DHT22;4642;51.364;6.788;2022-09-09T08:03:37;16.70;99.90
9215;DHT22;4642;51.364;6.788;2022-09-09T08:06:04;16.70;99.90
9215;DHT22;4642;51.364;6.788;2022-09-09T08:08:31;16.70;99.90
9215;DHT22;4642;51.364;6.788;2022-09-09T08:11:06;16.80;99.90
9215;DHT22;4642;51.364;6.788;2022-09-09T08:13:34;16.80;99.90
9215;DHT22;4642;51.364;6.788;2022-09-09T08:16:14;16.90;99.90
9215;DHT22;4642;51.364;6.788;2022-09-09T08:18:39;17.00;99.90
9215;DHT22;4642;51.364;6.788;2022-09-09T08:21:11;17.00;99.90
9215;DHT22;4642;51.364;6.788;2022-09-09T08:23:40;17.10;99.90
9215;DHT22;4642;51.364;6.788;2022-09-09T08:26:12;17.20;99.90
9215;DHT22;4642;51.364;6.788;2022-09-09T08:28:39;17.30;99.90
9215;DHT22;4642;51.364;6.788;2022-09-09T08:31:14;17.30;99.90
9215;DHT22;4642;51.364;6.788;2022-09-09T08:33:41;17.30;99.90
9215;DHT22;4642;51.364;6.788;2022-09-09T08:36:09;17.40;99.90
9215;DHT22;4642;51.364;6.788;2022-09-09T08:38:35;17.30;99.90
9215;DHT22;4642;51.364;6.788;2022-09-09T08:44:35;17.70;99.90
9215;DHT22;4642;51.364;6.788;2022-09-09T08:55:51;17.90;99.90
9215;DHT22;4642;51.364;6.788;2022-09-09T08:58:33;18.00;99.90
9215;DHT22;4642;51.364;6.788;2022-09-09T09:06:42;18.20;99.90
9215;DHT22;4642;51.364;6.788;2022-09-09T09:09:23;18.30;1.00
9215;DHT22;4642;51.364;6.788;2022-09-09T09:11:59;18.30;99.90
9215;DHT22;4642;51.364;6.788;2022-09-09T09:14:30;18.40;99.90
9215;DHT22;4642;51.364;6.788;2022-09-09T09:17:02;18.40;99.90
9215;DHT22;4642;51.364;6.788;2022-09-09T09:19:30;18.50;50.00
9215;DHT22;4642;51.364;6.788;2022-09-09T09:22:32;18.50;1.00
9215;DHT22;4642;51.364;6.788;2022-09-09T09:25:15;18.60;1.00
9215;DHT22;4642;51.364;6.788;2022-09-09T09:30:26;18.70;99.90
9215;DHT22;4642;51.364;6.788;2022-09-09T09:32:56;18.70;99.90
9215;DHT22;4642;51.364;6.788;2022-09-09T09:35:23;18.60;1.00
9215;DHT22;4642;51.364;6.788;2022-09-09T09:37:49;18.60;64.60
9215;DHT22;4642;51.364;6.788;2022-09-09T09:40:18;18.60;1.00
9215;DHT22;4642;51.364;6.788;2022-09-09T09:42:59;18.60;24.80
9215;DHT22;4642;51.364;6.788;2022-09-09T09:48:04;18.60;1.00
9215;DHT22;4642;51.364;6.788;2022-09-09T09:50:31;18.60;99.90
9215;DHT22;4642;51.364;6.788;2022-09-09T09:53:00;18.50;1.00
9215;DHT22;4642;51.364;6.788;2022-09-09T09:55:26;18.60;1.00
9215;DHT22;4642;51.364;6.788;2022-09-09T09:58:04;18.80;99.90
9215;DHT22;4642;51.364;6.788;2022-09-09T10:00:30;18.90;99.90
9215;DHT22;4642;51.364;6.788;2022-09-09T10:02:55;19.00;57.90
9215;DHT22;4642;51.364;6.788;2022-09-09T10:05:29;19.10;1.00
9215;DHT22;4642;51.364;6.788;2022-09-09T10:13:29;19.40;1.00
9215;DHT22;4642;51.364;6.788;2022-09-09T10:18:47;19.50;1.00
9215;DHT22;4642;51.364;6.788;2022-09-09T10:26:42;19.50;1.00
9215;DHT22;4642;51.364;6.788;2022-09-09T10:32:12;19.60;1.00
9215;DHT22;4642;51.364;6.788;2022-09-09T10:37:47;19.50;99.90
9215;DHT22;4642;51.364;6.788;2022-09-09T10:46:22;19.30;1.00
9215;DHT22;4642;51.364;6.788;2022-09-09T10:51:43;19.30;1.00
9215;DHT22;4642;51.364;6.788;2022-09-09T10:54:30;19.40;1.00
9215;DHT22;4642;51.364;6.788;2022-09-09T10:57:03;19.40;1.00
9215;DHT22;4642;51.364;6.788;2022-09-09T10:59:34;19.50;1.00
9215;DHT22;4642;51.364;6.788;2022-09-09T11:02:24;19.60;1.00
9215;DHT22;4642;51.364;6.788;2022-09-09T11:04:57;19.70;1.00
9215;DHT22;4642;51.364;6.788;2022-09-09T11:07:36;19.80;88.90
9215;DHT22;4642;51.364;6.788;2022-09-09T11:10:11;19.80;1.00
9215;DHT22;4642;51.364;6.788;2022-09-09T11:12:43;19.90;1.00
9215;DHT22;4642;51.364;6.788;2022-09-09T11:15:23;19.80;99.90
9215;DHT22;4642;51.364;6.788;2022-09-09T11:17:58;19.80;99.90
9215;DHT22;4642;51.364;6.788;2022-09-09T11:20:25;19.80;45.10
9215;DHT22;4642;51.364;6.788;2022-09-09T11:25:41;19.80;1.00
9215;DHT22;4642;51.364;6.788;2022-09-09T11:30:53;19.90;99.90
9215;DHT22;4642;51.364;6.788;2022-09-09T11:42:18;20.00;1.00
9215;DHT22;4642;51.364;6.788;2022-09-09T11:44:45;20.00;99.90
9215;DHT22;4642;51.364;6.788;2022-09-09T11:47:28;20.00;99.90
9215;DHT22;4642;51.364;6.788;2022-09-09T11:52:43;20.10;1.00
9215;DHT22;4642;51.364;6.788;2022-09-09T11:55:25;20.20;27.50
9215;DHT22;4642;51.364;6.788;2022-09-09T11:58:05;20.30;1.00
9215;DHT22;4642;51.364;6.788;2022-09-09T12:00:37;20.50;1.00
9215;DHT22;4642;51.364;6.788;2022-09-09T12:03:04;20.60;1.00
9215;DHT22;4642;51.364;6.788;2022-09-09T12:05:38;20.60;1.00
9215;DHT22;4642;51.364;6.788;2022-09-09T12:08:05;20.50;1.00
9215;DHT22;4642;51.364;6.788;2022-09-09T12:10:34;20.50;1.00
9215;DHT22;4642;51.364;6.788;2022-09-09T12:13:22;20.40;1.00
9215;DHT22;4642;51.364;6.788;2022-09-09T12:15:50;20.30;99.90
9215;DHT22;4642;51.364;6.788;2022-09-09T12:18:36;20.30;1.00
9215;DHT22;4642;51.364;6.788;2022-09-09T12:21:07;20.30;1.00
9215;DHT22;4642;51.364;6.788;2022-09-09T12:23:46;20.40;1.00
9215;DHT22;4642;51.364;6.788;2022-09-09T12:26:35;20.60;1.00
9215;DHT22;4642;51.364;6.788;2022-09-09T12:32:08;20.80;99.90
9215;DHT22;4642;51.364;6.788;2022-09-09T12:38:09;20.70;99.90
9215;DHT22;4642;51.364;6.788;2022-09-09T12:40:31;20.50;99.90
9215;DHT22;4642;51.364;6.788;2022-09-09T12:43:00;20.40;99.90
9215;DHT22;4642;51.364;6.788;2022-09-09T12:45:31;20.30;1.00
9215;DHT22;4642;51.364;6.788;2022-09-09T12:50:30;19.70;99.90
9215;DHT22;4642;51.364;6.788;2022-09-09T12:52:58;19.40;1.00
9215;DHT22;4642;51.364;6.788;2022-09-09T12:55:28;19.00;1.00
9215;DHT22;4642;51.364;6.788;2022-09-09T12:57:55;18.90;1.00
9215;DHT22;4642;51.364;6.788;2022-09-09T13:00:24;18.50;49.90
9215;DHT22;4642;51.364;6.788;2022-09-09T13:02:57;18.60;99.90
9215;DHT22;4642;51.364;6.788;2022-09-09T13:05:35;18.40;1.00
9215;DHT22;4642;51.364;6.788;2022-09-09T13:08:08;18.10;43.50
9215;DHT22;4642;51.364;6.788;2022-09-09T13:10:39;17.90;99.90
9215;DHT22;4642;51.364;6.788;2022-09-09T13:13:17;17.80;99.90
9215;DHT22;4642;51.364;6.788;2022-09-09T13:15:56;17.80;99.90
9215;DHT22;4642;51.364;6.788;2022-09-09T13:18:28;17.80;99.90
9215;DHT22;4642;51.364;6.788;2022-09-09T13:20:54;17.80;28.60
9215;DHT22;4642;51.364;6.788;2022-09-09T13:23:26;17.90;99.90
9215;DHT22;4642;51.364;6.788;2022-09-09T13:25:54;18.00;99.90
9215;DHT22;4642;51.364;6.788;2022-09-09T13:28:22;18.20;99.90
9215;DHT22;4642;51.364;6.788;2022-09-09T13:30:56;18.20;1.00
9215;DHT22;4642;51.364;6.788;2022-09-09T13:33:30;18.30;1.00
9215;DHT22;4642;51.364;6.788;2022-09-09T13:36:05;18.40;1.00
9215;DHT22;4642;51.364;6.788;2022-09-09T13:41:20;18.70;99.90
9215;DHT22;4642;51.364;6.788;2022-09-09T13:43:47;18.90;1.00
9215;DHT22;4642;51.364;6.788;2022-09-09T13:48:56;19.30;99.90
9215;DHT22;4642;51.364;6.788;2022-09-09T13:51:34;19.30;99.90
9215;DHT22;4642;51.364;6.788;2022-09-09T13:54:00;19.40;1.00
9215;DHT22;4642;51.364;6.788;2022-09-09T13:56:26;19.70;99.90
9215;DHT22;4642;51.364;6.788;2022-09-09T13:58:52;19.60;1.00
9215;DHT22;4642;51.364;6.788;2022-09-09T14:01:17;19.80;1.00
9215;DHT22;4642;51.364;6.788;2022-09-09T14:03:43;19.90;99.90
9215;DHT22;4642;51.364;6.788;2022-09-09T14:06:10;19.90;21.80
9215;DHT22;4642;51.364;6.788;2022-09-09T14:08:36;20.10;99.90
9215;DHT22;4642;51.364;6.788;2022-09-09T14:11:03;20.20;1.00
9215;DHT22;4642;51.364;6.788;2022-09-09T14:13:29;20.20;99.90
9215;DHT22;4642;51.364;6.788;2022-09-09T14:15:54;20.30;1.00
9215;DHT22;4642;51.364;6.788;2022-09-09T14:18:20;20.60;1.00
9215;DHT22;4642;51.364;6.788;2022-09-09T14:20:47;20.40;99.90
9215;DHT22;4642;51.364;6.788;2022-09-09T14:23:13;20.50;99.90
9215;DHT22;4642;51.364;6.788;2022-09-09T14:25:40;20.50;99.90
9215;DHT22;4642;51.364;6.788;2022-09-09T14:28:09;20.60;1.00
9215;DHT22;4642;51.364;6.788;2022-09-09T14:30:34;20.50;1.00
9215;DHT22;4642;51.364;6.788;2022-09-09T14:33:00;20.40;1.00
9215;DHT22;4642;51.364;6.788;2022-09-09T14:35:25;20.30;1.00
9215;DHT22;4642;51.364;6.788;2022-09-09T14:37:51;20.10;15.70
9215;DHT22;4642;51.364;6.788;2022-09-09T14:40:17;19.70;99.90
9215;DHT22;4642;51.364;6.788;2022-09-09T14:42:42;18.90;1.00
9215;DHT22;4642;51.364;6.788;2022-09-09T14:45:08;18.20;99.90
9215;DHT22;4642;51.364;6.788;2022-09-09T14:47:34;17.90;69.70
9215;DHT22;4642;51.364;6.788;2022-09-09T14:50:00;17.70;1.00
9215;DHT22;4642;51.364;6.788;2022-09-09T14:52:29;17.30;99.90
9215;DHT22;4642;51.364;6.788;2022-09-09T14:54:54;17.20;99.90
9215;DHT22;4642;51.364;6.788;2022-09-09T14:57:20;17.10;21.80
9215;DHT22;4642;51.364;6.788;2022-09-09T14:59:45;16.90;99.90
9215;DHT22;4642;51.364;6.788;2022-09-09T15:02:11;16.90;99.30
9215;DHT22;4642;51.364;6.788;2022-09-09T15:04:38;16.90;99.90
9215;DHT22;4642;51.364;6.788;2022-09-09T15:07:04;16.90;99.90
9215;DHT22;4642;51.364;6.788;2022-09-09T15:09:29;16.90;99.90
9215;DHT22;4642;51.364;6.788;2022-09-09T15:11:55;16.90;99.90
9215;DHT22;4642;51.364;6.788;2022-09-09T15:14:20;16.90;99.90
9215;DHT22;4642;51.364;6.788;2022-09-09T15:16:46;16.90;99.90
9215;DHT22;4642;51.364;6.788;2022-09-09T15:19:12;16.90;99.90
9215;DHT22;4642;51.364;6.788;2022-09-09T15:21:38;16.90;99.90
9215;DHT22;4642;51.364;6.788;2022-09-09T15:24:04;16.90;99.90
9215;DHT22;4642;51.364;6.788;2022-09-09T15:26:30;17.10;99.90
9215;DHT22;4642;51.364;6.788;2022-09-09T15:28:56;17.10;99.90
9215;DHT22;4642;51.364;6.788;2022-09-09T15:31:27;17.10;99.90
9215;DHT22;4642;51.364;6.788;2022-09-09T15:34:20;17.20;99.90
9215;DHT22;4642;51.364;6.788;2022-09-09T15:36:46;17.40;99.90
9215;DHT22;4642;51.364;6.788;2022-09-09T15:39:13;17.40;99.90
9215;DHT22;4642;51.364;6.788;2022-09-09T15:41:44;17.50;99.90
9215;DHT22;4642;51.364;6.788;2022-09-09T15:44:10;17.60;99.90
9215;DHT22;4642;51.364;6.788;2022-09-09T15:46:50;17.70;99.90
9215;DHT22;4642;51.364;6.788;2022-09-09T15:49:24;17.70;99.90
9215;DHT22;4642;51.364;6.788;2022-09-09T15:51:59;17.80;99.90
9215;DHT22;4642;51.364;6.788;2022-09-09T15:54:27;17.80;99.90
9215;DHT22;4642;51.364;6.788;2022-09-09T15:56:57;17.70;99.90
9215;DHT22;4642;51.364;6.788;2022-09-09T15:59:24;17.80;99.90
9215;DHT22;4642;51.364;6.788;2022-09-09T16:01:50;17.70;99.90
9215;DHT22;4642;51.364;6.788;2022-09-09T16:04:20;17.70;99.90
9215;DHT22;4642;51.364;6.788;2022-09-09T16:06:59;17.70;99.90
9215;DHT22;4642;51.364;6.788;2022-09-09T16:09:26;17.80;99.90
9215;DHT22;4642;51.364;6.788;2022-09-09T16:11:52;17.80;99.90
9215;DHT22;4642;51.364;6.788;2022-09-09T16:14:19;17.80;99.90
9215;DHT22;4642;51.364;6.788;2022-09-09T16:16:45;17.70;99.90
9215;DHT22;4642;51.364;6.788;2022-09-09T16:19:12;17.90;99.90
9215;DHT22;4642;51.364;6.788;2022-09-09T16:21:44;17.80;99.90
9215;DHT22;4642;51.364;6.788;2022-09-09T16:24:12;17.90;99.90
9215;DHT22;4642;51.364;6.788;2022-09-09T16:26:40;18.20;99.90
9215;DHT22;4642;51.364;6.788;2022-09-09T16:29:06;18.30;99.90
9215;DHT22;4642;51.364;6.788;2022-09-09T16:31:32;18.30;99.90
9215;DHT22;4642;51.364;6.788;2022-09-09T16:33:58;18.30;99.90
9215;DHT22;4642;51.364;6.788;2022-09-09T16:36:28;18.30;99.90
9215;DHT22;4642;51.364;6.788;2022-09-09T16:39:00;18.30;99.90
9215;DHT22;4642;51.364;6.788;2022-09-09T16:41:27;18.30;99.90
9215;DHT22;4642;51.364;6.788;2022-09-09T16:43:58;18.20;99.90
9215;DHT22;4642;51.364;6.788;2022-09-09T16:46:27;18.10;99.90
9215;DHT22;4642;51.364;6.788;2022-09-09T16:48:53;18.10;99.90
9215;DHT22;4642;51.364;6.788;2022-09-09T16:51:23;18.00;99.90
9215;DHT22;4642;51.364;6.788;2022-09-09T16:53:50;18.00;99.90
9215;DHT22;4642;51.364;6.788;2022-09-09T16:56:18;17.90;99.90
9215;DHT22;4642;51.364;6.788;2022-09-09T16:58:55;17.90;99.90
9215;DHT22;4642;51.364;6.788;2022-09-09T17:01:21;17.90;99.90
9215;DHT22;4642;51.364;6.788;2022-09-09T17:03:47;17.90;99.90
9215;DHT22;4642;51.364;6.788;2022-09-09T17:06:14;17.80;99.90
9215;DHT22;4642;51.364;6.788;2022-09-09T17:08:41;17.70;99.90
9215;DHT22;4642;51.364;6.788;2022-09-09T17:11:17;17.70;99.90
9215;DHT22;4642;51.364;6.788;2022-09-09T17:13:44;17.60;99.90
9215;DHT22;4642;51.364;6.788;2022-09-09T17:16:11;17.60;99.90
9215;DHT22;4642;51.364;6.788;2022-09-09T17:18:37;17.70;99.90
9215;DHT22;4642;51.364;6.788;2022-09-09T17:21:11;17.50;99.90
9215;DHT22;4642;51.364;6.788;2022-09-09T17:23:39;17.50;99.90
9215;DHT22;4642;51.364;6.788;2022-09-09T17:26:09;17.40;99.90
9215;DHT22;4642;51.364;6.788;2022-09-09T17:28:36;17.40;99.90
9215;DHT22;4642;51.364;6.788;2022-09-09T17:31:04;17.30;99.90
9215;DHT22;4642;51.364;6.788;2022-09-09T17:33:32;17.20;99.90
9215;DHT22;4642;51.364;6.788;2022-09-09T17:35:59;17.20;99.90
9215;DHT22;4642;51.364;6.788;2022-09-09T17:38:27;17.20;99.90
9215;DHT22;4642;51.364;6.788;2022-09-09T17:41:03;17.10;99.90
9215;DHT22;4642;51.364;6.788;2022-09-09T17:43:29;17.10;99.90
9215;DHT22;4642;51.364;6.788;2022-09-09T17:45:54;17.10;99.90
9215;DHT22;4642;51.364;6.788;2022-09-09T17:48:20;17.00;99.90
9215;DHT22;4642;51.364;6.788;2022-09-09T17:50:45;17.00;99.90
9215;DHT22;4642;51.364;6.788;2022-09-09T17:53:12;17.00;99.90
9215;DHT22;4642;51.364;6.788;2022-09-09T17:55:37;17.00;99.90
9215;DHT22;4642;51.364;6.788;2022-09-09T17:58:03;16.90;99.90
9215;DHT22;4642;51.364;6.788;2022-09-09T18:00:29;16.90;99.90
9215;DHT22;4642;51.364;6.788;2022-09-09T18:02:55;16.90;99.90
9215;DHT22;4642;51.364;6.788;2022-09-09T18:05:21;16.90;99.90
9215;DHT22;4642;51.364;6.788;2022-09-09T18:07:46;16.90;99.90
9215;DHT22;4642;51.364;6.788;2022-09-09T18:10:13;16.80;99.90
9215;DHT22;4642;51.364;6.788;2022-09-09T18:12:39;16.90;99.90
9215;DHT22;4642;51.364;6.788;2022-09-09T18:15:04;16.90;99.90
9215;DHT22;4642;51.364;6.788;2022-09-09T18:17:30;16.80;99.90
9215;DHT22;4642;51.364;6.788;2022-09-09T18:19:56;16.80;99.90
9215;DHT22;4642;51.364;6.788;2022-09-09T18:22:21;16.80;99.90
9215;DHT22;4642;51.364;6.788;2022-09-09T18:24:47;16.70;99.90
9215;DHT22;4642;51.364;6.788;2022-09-09T18:27:14;16.70;99.90
9215;DHT22;4642;51.364;6.788;2022-09-09T18:29:40;16.70;99.90
9215;DHT22;4642;51.364;6.788;2022-09-09T18:32:06;16.70;99.90
9215;DHT22;4642;51.364;6.788;2022-09-09T18:34:31;16.70;99.90
9215;DHT22;4642;51.364;6.788;2022-09-09T18:36:57;16.70;99.90
9215;DHT22;4642;51.364;6.788;2022-09-09T18:39:25;16.70;99.90